Kihei, HI

11:33 AM HST on March 01, 2015 (GMT -1000)
Kihei | Change Station
CLOSE
Current Station
Personal Weather Station
Location: Kihei, HI
Elevation: 23 ft
Nearby Weather Stations

Elev 23 ft 20.74 °N, 156.46 °W | Updated 1 minute ago

Scattered Clouds
Scattered Clouds
79.9 °F
Feels Like 83 °F
N
0.0
Wind Variable Wind from NNE
Gusts 4.0 mph

Today
High -- | Low -- °F
--% Chance of Precip.
Yesterday
High -- | Low -- °F
Precip. -- in
6:46 AM 6:30 PM
Waxing Gibbous, 87% visible
Pressure 30.06 in
Visibility 10.0 miles
Clouds Few 2000 ft
Scattered Clouds 5000 ft
Heat Index 83 °F
Dew Point 70 °F
Humidity 71%
Rainfall 0.00 in
Snow Depth Not available.
UV 6 out of 12
Pollen Not available.
Air Quality Not available.
Flu Activity Not available.
METAR PHOG 012054Z 03007KT 10SM FEW020 SCT050 25/20 A3004 RMK AO2 SLP177 60007 T02500200 51012 $

More Conditions Fewer Conditions

Pressure 30.06 in
Visibility 10.0 miles
Clouds Few 2000 ft
Scattered Clouds 5000 ft
Heat Index 83 °F
Dew Point 70 °F
Humidity 71%
Rainfall 0.00 in
Snow Depth Not available.
UV 6 out of 12
Pollen Not available.
Air Quality Not available.
Flu Activity Not available.
METAR PHOG 012054Z 03007KT 10SM FEW020 SCT050 25/20 A3004 RMK AO2 SLP177 60007 T02500200 51012 $

More Conditions Fewer Conditions

10-Day Weather Forecast

Almanac

Astronomy

Mar. 01, 2015 Rise Set
Actual Time
Civil Twilight
Nautical Twilight
Astronomical Twilight
Moon
Length of Visible Light
Length of Day
Tomorrow will be .
, % of the Moon is Illuminated

Today's Extremes

State Highs State Lows

Community

WunderPhotos

Upload Photos

1,801,574 photos uploaded!

WunderBlogs® & News

Nearby

Air Quality

  Air Quality AQ Index Pollutant
Not available.

Snow Depth

Station Depth Elevation

Earthquake Activity

City Distance Mag. Time & Date
Minimum magnitude displayed is 2.5.

Coastal Water Temperatures

Place Temperature

Nearby Weather Stations